Padre Marcos, Brazil
Current Conditions -  °F | °C
As of 11:00 PM on Saturday 25 Oct 2014 (Local Time) from SBJU Reporting Station
Few Clouds Few Clouds  
Wind Chill: 88°   Ceiling: Unl
Heat Index: 88°   Visibility: 6mi
Dew Point: 57°   Wind: 7mph
Humidity: 35%   Direction: 120°ESE
Pressure: 29.94"   Gusts: NA
Location:  7.36°S, 40.91°W
Report Text: SBJU 260200Z 12006KT 9999 FEW022 31/14 Q1014
Loading
Personal Weather Stations






























Interactive Weather Map
Tropical Storm Tracking
New forecast layout! Learn more

10-Day Weather Forecast

Advertisements
Track Severe Weather on mobile